Time;durP1;ratioP1;P1;durP2;ratioP2;P2;SDS_P1;SDS_P2;PMS_P1;PMS_P2;Temp;Humidity;BMP_temperature;BMP_pressure;BME280_temperature;BME280_humidity;BME280_pressure;Samples;Min_cycle;Max_cycle;Signal;HPM_P1;HPM_P2
2021/09/08 00:01:54;;;;;;;12.75;4.82;;;14.80;99.90;;;;;;5028852;28;20392;-75
2021/09/08 00:04:20;;;;;;;9.75;5.78;;;14.80;99.90;;;;;;4998974;28;20046;-75
2021/09/08 00:06:46;;;;;;;;;;;14.80;99.90;;;;;;4984490;28;20084;-74
2021/09/08 00:09:11;;;;;;;11.55;5.53;;;14.80;99.90;;;;;;5004924;28;19925;-75
2021/09/08 00:11:37;;;;;;;;;;;14.80;99.90;;;;;;4985216;28;20039;-75
2021/09/08 00:14:03;;;;;;;7.97;4.95;;;14.70;99.90;;;;;;5011923;28;19917;-74
2021/09/08 00:16:29;;;;;;;11.57;6.38;;;14.70;99.90;;;;;;5001180;28;20038;-75
2021/09/08 00:18:54;;;;;;;;;;;14.70;99.90;;;;;;4978595;28;20034;-75
2021/09/08 00:21:20;;;;;;;13.63;7.32;;;14.70;99.90;;;;;;5002317;28;20360;-75
2021/09/08 00:23:46;;;;;;;;;;;14.60;99.90;;;;;;5008551;28;20069;-75
2021/09/08 00:26:11;;;;;;;14.75;5.88;;;14.60;99.90;;;;;;5002028;28;19925;-75
2021/09/08 00:28:37;;;;;;;12.20;6.72;;;14.60;99.90;;;;;;5002735;28;20058;-75
2021/09/08 00:31:03;;;;;;;13.75;7.60;;;14.50;99.90;;;;;;4990554;28;20039;-75
2021/09/08 00:33:29;;;;;;;10.23;7.00;;;14.50;99.90;;;;;;4994804;28;20396;-75
2021/09/08 00:35:54;;;;;;;16.80;6.85;;;14.50;99.90;;;;;;4990761;28;20058;-75
2021/09/08 00:38:20;;;;;;;12.30;6.15;;;14.50;99.90;;;;;;5002916;28;20045;-75
2021/09/08 00:40:46;;;;;;;;;;;14.50;99.90;;;;;;4990876;28;20050;-75
2021/09/08 00:43:12;;;;;;;9.38;5.88;;;14.50;99.90;;;;;;5027911;28;19968;-74
2021/09/08 00:45:37;;;;;;;;;;;14.50;99.90;;;;;;4988154;28;20042;-74
2021/09/08 00:48:04;;;;;;;9.48;6.20;;;14.50;99.90;;;;;;5028451;28;20015;-74
2021/09/08 00:50:29;;;;;;;12.82;6.40;;;14.40;99.90;;;;;;5000961;28;20452;-75
2021/09/08 00:52:58;;;;;;;14.15;6.90;;;14.40;99.90;;;;;;4990951;28;20089;-75
2021/09/08 00:55:26;;;;;;;11.90;7.28;;;14.40;99.90;;;;;;4999503;28;20042;-74
2021/09/08 00:57:52;;;;;;;11.57;4.72;;;14.40;99.90;;;;;;4990965;28;20050;-75
2021/09/08 01:00:18;;;;;;;11.02;6.93;;;14.30;99.90;;;;;;5001232;28;20042;-74
2021/09/08 01:02:44;;;;;;;12.95;5.97;;;14.30;99.90;;;;;;4991434;28;20124;-75
2021/09/08 01:05:11;;;;;;;8.00;5.50;;;14.30;99.90;;;;;;4984192;28;20046;-75
2021/09/08 01:07:37;;;;;;;10.07;5.82;;;14.30;99.90;;;;;;4990841;28;20550;-74
2021/09/08 01:10:04;;;;;;;11.07;6.35;;;14.30;99.90;;;;;;5000399;28;20053;-74
2021/09/08 01:12:30;;;;;;;13.18;7.78;;;14.20;99.90;;;;;;4958761;28;20042;-75
2021/09/08 01:14:55;;;;;;;14.30;6.80;;;14.20;99.90;;;;;;5005756;28;20042;-74
2021/09/08 01:17:21;;;;;;;9.15;5.30;;;14.20;99.90;;;;;;4993779;28;20050;-74
2021/09/08 01:19:47;;;;;;;11.82;6.25;;;14.20;99.90;;;;;;5002717;28;20427;-74
2021/09/08 01:22:12;;;;;;;;;;;14.10;99.90;;;;;;5000843;28;20033;-74
2021/09/08 01:24:43;;;;;;;6.13;4.88;;;14.10;99.90;;;;;;5003693;28;20306;-74
2021/09/08 01:27:09;;;;;;;9.15;5.70;;;14.10;99.90;;;;;;4993276;28;20090;-74
2021/09/08 01:29:34;;;;;;;14.48;6.38;;;14.10;99.90;;;;;;5002912;28;20057;-74
2021/09/08 01:32:00;;;;;;;12.23;6.75;;;14.10;99.90;;;;;;5004007;28;20046;-74
2021/09/08 01:34:27;;;;;;;17.38;7.57;;;14.00;99.90;;;;;;5009055;28;20045;-74
2021/09/08 01:36:53;;;;;;;9.50;6.07;;;14.00;99.90;;;;;;5013843;28;20049;-74
2021/09/08 01:39:20;;;;;;;13.00;5.53;;;14.00;99.90;;;;;;5005269;28;20046;-74
2021/09/08 01:41:48;;;;;;;9.35;7.30;;;13.90;99.90;;;;;;5007367;28;20120;-75
2021/09/08 01:44:21;;;;;;;13.98;7.70;;;13.90;99.90;;;;;;5012357;28;20037;-72
2021/09/08 01:46:49;;;;;;;11.20;5.50;;;13.90;99.90;;;;;;5008606;28;20050;-73
2021/09/08 01:49:15;;;;;;;12.40;7.22;;;13.90;99.90;;;;;;5010161;28;20153;-74
2021/09/08 01:51:41;;;;;;;16.10;8.02;;;13.90;99.90;;;;;;4995595;28;20125;-74
2021/09/08 01:54:06;;;;;;;9.88;6.13;;;13.90;99.90;;;;;;5006181;28;20042;-74
2021/09/08 01:56:32;;;;;;;16.17;6.50;;;13.80;99.90;;;;;;4996168;28;20144;-74
2021/09/08 01:58:58;;;;;;;;;;;13.80;99.90;;;;;;4981718;28;20560;-74
2021/09/08 02:01:25;;;;;;;11.98;5.78;;;13.80;99.90;;;;;;5005730;28;19923;-74
2021/09/08 02:03:52;;;;;;;12.77;5.68;;;13.70;99.90;;;;;;4999701;28;20132;-74
2021/09/08 02:06:23;;;;;;;9.40;6.18;;;13.70;99.90;;;;;;5001882;28;20030;-74
2021/09/08 02:08:58;;;;;;;13.85;7.32;;;13.70;99.90;;;;;;4995721;28;20038;-74
2021/09/08 02:11:24;;;;;;;10.65;6.25;;;13.70;99.90;;;;;;5005964;28;20101;-74
2021/09/08 02:13:51;;;;;;;9.65;7.32;;;13.70;99.90;;;;;;5004841;28;20045;-74
2021/09/08 02:16:20;;;;;;;11.02;5.82;;;13.60;99.90;;;;;;4993203;28;20052;-74
2021/09/08 02:18:47;;;;;;;8.90;6.72;;;13.60;99.90;;;;;;5003581;28;20392;-74
2021/09/08 02:21:12;;;;;;;11.88;5.07;;;13.60;99.90;;;;;;5005328;28;20066;-74
2021/09/08 02:23:38;;;;;;;8.85;5.28;;;13.50;99.90;;;;;;5010892;28;20080;-74
2021/09/08 02:26:03;;;;;;;6.93;4.30;;;13.50;99.90;;;;;;4992315;28;20042;-74
2021/09/08 02:28:29;;;;;;;12.25;7.25;;;13.50;99.90;;;;;;5003357;28;20054;-74
2021/09/08 02:30:56;;;;;;;6.97;4.70;;;13.50;99.90;;;;;;5000287;28;20038;-74
2021/09/08 02:33:22;;;;;;;10.98;6.18;;;13.50;99.90;;;;;;4988584;28;20052;-74
2021/09/08 02:35:48;;;;;;;14.10;6.95;;;13.50;99.90;;;;;;4994552;28;20042;-74
2021/09/08 02:38:13;;;;;;;;;;;13.50;99.90;;;;;;5009532;28;20045;-74
2021/09/08 02:40:39;;;;;;;10.52;5.50;;;13.40;99.90;;;;;;5032708;28;20379;-74
2021/09/08 02:43:04;;;;;;;15.55;6.25;;;13.40;99.90;;;;;;4989118;28;20446;-74
2021/09/08 02:45:30;;;;;;;5.63;4.75;;;13.40;99.90;;;;;;4995287;28;20050;-74
2021/09/08 02:47:56;;;;;;;12.20;7.15;;;13.40;99.90;;;;;;5001466;28;20460;-74
2021/09/08 02:50:22;;;;;;;9.95;5.13;;;13.40;99.90;;;;;;4992379;28;20420;-74
2021/09/08 02:52:47;;;;;;;;;;;13.30;99.90;;;;;;4980955;28;20042;-74
2021/09/08 02:55:13;;;;;;;8.45;5.03;;;13.30;99.90;;;;;;5012014;28;19967;-74
2021/09/08 02:57:39;;;;;;;7.53;4.50;;;13.30;99.90;;;;;;5010563;28;20048;-75
2021/09/08 03:00:05;;;;;;;9.82;5.85;;;13.30;99.90;;;;;;4996975;28;20051;-74
2021/09/08 03:02:30;;;;;;;;;;;13.30;99.90;;;;;;4977158;28;20541;-74
2021/09/08 03:04:56;;;;;;;9.63;5.93;;;13.30;99.90;;;;;;4992075;28;19965;-74
2021/09/08 03:07:21;;;;;;;9.18;5.00;;;13.20;99.90;;;;;;5004874;28;20512;-74
2021/09/08 03:09:47;;;;;;;17.35;7.40;;;13.20;99.90;;;;;;5003693;28;20383;-74
2021/09/08 03:12:13;;;;;;;9.35;6.13;;;13.20;99.90;;;;;;4977538;28;20056;-74
2021/09/08 03:14:38;;;;;;;11.00;6.55;;;13.20;99.90;;;;;;5003455;28;20456;-74
2021/09/08 03:17:04;;;;;;;;;;;13.10;99.90;;;;;;4959944;28;20074;-74
2021/09/08 03:19:30;;;;;;;8.90;6.57;;;13.10;99.90;;;;;;5035749;28;20017;-74
2021/09/08 03:21:55;;;;;;;11.15;5.57;;;13.10;99.90;;;;;;4994416;28;20488;-74
2021/09/08 03:24:21;;;;;;;12.35;5.70;;;13.10;99.90;;;;;;5017197;28;20053;-74
2021/09/08 03:26:46;;;;;;;8.45;5.53;;;13.10;99.90;;;;;;4985490;28;20049;-74
2021/09/08 03:29:12;;;;;;;;;;;13.10;99.90;;;;;;5009503;28;20427;-73
2021/09/08 03:31:38;;;;;;;15.32;7.65;;;13.10;99.90;;;;;;4997553;28;20004;-73
2021/09/08 03:34:03;;;;;;;;;;;13.00;99.90;;;;;;5003789;28;20147;-74
2021/09/08 03:36:29;;;;;;;9.80;5.22;;;13.00;99.90;;;;;;4991387;28;19917;-74
2021/09/08 03:38:55;;;;;;;9.45;6.95;;;13.00;99.90;;;;;;4987523;28;20077;-74
2021/09/08 03:41:20;;;;;;;12.32;6.50;;;13.00;99.90;;;;;;5004820;28;20046;-74
2021/09/08 03:43:46;;;;;;;12.18;5.53;;;13.00;99.90;;;;;;5010260;28;20542;-73
2021/09/08 03:46:12;;;;;;;10.30;7.13;;;12.90;99.90;;;;;;5009105;28;20073;-74
2021/09/08 03:48:37;;;;;;;;;;;12.90;99.90;;;;;;4980593;28;20042;-74
2021/09/08 03:51:03;;;;;;;11.32;5.00;;;12.90;99.90;;;;;;5032162;28;20275;-74
2021/09/08 03:53:29;;;;;;;13.07;7.85;;;12.90;99.90;;;;;;5006573;28;20125;-74
2021/09/08 03:55:55;;;;;;;12.82;8.07;;;12.80;99.90;;;;;;5006078;28;20033;-73
2021/09/08 03:58:20;;;;;;;;;;;12.80;99.90;;;;;;4992212;28;20046;-74
2021/09/08 04:00:46;;;;;;;8.10;6.60;;;12.80;99.90;;;;;;4995854;28;19926;-73
2021/09/08 04:03:12;;;;;;;;;;;12.80;99.90;;;;;;5028636;28;20066;-74
2021/09/08 04:05:37;;;;;;;9.93;5.95;;;12.80;99.90;;;;;;4994232;28;19953;-74
2021/09/08 04:08:03;;;;;;;13.63;6.70;;;12.70;99.90;;;;;;4990977;28;20034;-74
2021/09/08 04:10:29;;;;;;;9.90;6.57;;;12.80;99.90;;;;;;5000140;28;20555;-74
2021/09/08 04:12:55;;;;;;;11.90;5.80;;;12.70;99.90;;;;;;5002613;28;20050;-74
2021/09/08 04:15:21;;;;;;;8.15;4.95;;;12.70;99.90;;;;;;4992561;28;20042;-74
2021/09/08 04:17:47;;;;;;;18.33;6.07;;;12.70;99.90;;;;;;5009899;28;20037;-74
2021/09/08 04:20:12;;;;;;;10.95;6.00;;;12.60;99.90;;;;;;5005562;28;20045;-74
2021/09/08 04:22:38;;;;;;;11.38;6.90;;;12.60;99.90;;;;;;5012733;28;20080;-74
2021/09/08 04:25:04;;;;;;;;;;;12.60;99.90;;;;;;5005089;28;20050;-75
2021/09/08 04:27:29;;;;;;;12.85;6.60;;;12.60;99.90;;;;;;5001299;28;20362;-74
2021/09/08 04:29:55;;;;;;;10.63;5.60;;;12.60;99.90;;;;;;4990223;28;20428;-74
2021/09/08 04:32:21;;;;;;;15.20;7.53;;;12.60;99.90;;;;;;4998384;28;20086;-74
2021/09/08 04:34:46;;;;;;;;;;;12.50;99.90;;;;;;4990373;28;20834;-74
2021/09/08 04:37:12;;;;;;;12.77;5.90;;;12.60;99.90;;;;;;4997836;28;19922;-75
2021/09/08 04:39:38;;;;;;;12.32;6.55;;;12.50;99.90;;;;;;4995504;28;20543;-74
2021/09/08 04:42:04;;;;;;;;;;;12.50;99.90;;;;;;5005039;28;20084;-74
2021/09/08 04:44:29;;;;;;;12.65;4.97;;;12.50;99.90;;;;;;5010203;28;19921;-74
2021/09/08 04:46:55;;;;;;;13.07;8.05;;;12.40;99.90;;;;;;4988782;28;20046;-75
2021/09/08 04:49:21;;;;;;;11.75;7.13;;;12.40;99.90;;;;;;5013154;28;20065;-75
2021/09/08 04:51:46;;;;;;;14.60;7.15;;;12.40;99.90;;;;;;4980739;28;20045;-75
2021/09/08 04:54:12;;;;;;;;;;;12.40;99.90;;;;;;5013454;28;20045;-75
2021/09/08 04:56:38;;;;;;;10.85;6.72;;;12.30;99.90;;;;;;5043854;28;19921;-76
2021/09/08 04:59:04;;;;;;;;;;;12.30;99.90;;;;;;4981818;28;20105;-76
2021/09/08 05:01:30;;;;;;;12.68;5.97;;;12.30;99.90;;;;;;4981581;28;20318;-76
2021/09/08 05:03:55;;;;;;;9.30;5.78;;;12.30;99.90;;;;;;5012901;28;20042;-76
2021/09/08 05:06:21;;;;;;;11.35;6.75;;;12.30;99.90;;;;;;5013962;28;20361;-75
2021/09/08 05:08:49;;;;;;;15.57;7.75;;;12.30;99.90;;;;;;5006833;28;20053;-75
2021/09/08 05:11:15;;;;;;;8.80;5.47;;;12.20;99.90;;;;;;5013404;28;20100;-75
2021/09/08 05:13:41;;;;;;;;;;;12.30;99.90;;;;;;5013603;28;20116;-75
2021/09/08 05:16:09;;;;;;;9.80;6.70;;;12.30;99.90;;;;;;5044526;28;19996;-75
2021/09/08 05:18:36;;;;;;;13.55;5.03;;;12.40;99.90;;;;;;4995665;28;20135;-75
2021/09/08 05:21:01;;;;;;;12.25;5.32;;;12.30;99.90;;;;;;5013232;28;20031;-75
2021/09/08 05:23:28;;;;;;;10.90;6.90;;;12.40;99.90;;;;;;4996740;28;20033;-75
2021/09/08 05:25:53;;;;;;;17.23;6.47;;;12.40;99.90;;;;;;5012704;28;20034;-75
2021/09/08 05:28:22;;;;;;;10.52;6.10;;;12.40;99.90;;;;;;5011253;28;20061;-74
2021/09/08 05:30:47;;;;;;;10.57;7.25;;;12.40;99.90;;;;;;5001251;28;20057;-74
2021/09/08 05:33:14;;;;;;;11.20;7.28;;;12.40;99.90;;;;;;5001665;28;20049;-74
2021/09/08 05:35:40;;;;;;;9.05;6.90;;;12.50;99.90;;;;;;5012883;28;20046;-75
2021/09/08 05:38:06;;;;;;;11.50;8.73;;;12.50;99.90;;;;;;5011895;28;20414;-75
2021/09/08 05:40:32;;;;;;;11.10;6.10;;;12.60;99.90;;;;;;4995985;28;20042;-75
2021/09/08 05:43:00;;;;;;;15.85;7.78;;;12.50;99.90;;;;;;4996856;28;20045;-75
2021/09/08 05:45:25;;;;;;;21.65;7.78;;;12.60;99.90;;;;;;4997822;28;20107;-75
2021/09/08 05:47:51;;;;;;;9.82;7.10;;;12.60;99.90;;;;;;5013818;28;20046;-74
2021/09/08 05:50:17;;;;;;;11.18;6.32;;;12.70;99.90;;;;;;5012247;28;20045;-75
2021/09/08 05:52:42;;;;;;;13.30;8.77;;;12.80;99.90;;;;;;4996294;28;20049;-75
2021/09/08 05:55:09;;;;;;;10.25;6.35;;;12.80;99.90;;;;;;5012390;28;20045;-75
2021/09/08 05:57:35;;;;;;;11.05;6.35;;;12.90;99.90;;;;;;5028969;28;20133;-75
2021/09/08 06:00:02;;;;;;;9.45;7.05;;;13.00;99.90;;;;;;4995623;28;20216;-75
2021/09/08 06:02:28;;;;;;;12.55;7.43;;;13.10;99.90;;;;;;5006885;28;20235;-75
2021/09/08 06:04:53;;;;;;;10.63;7.32;;;13.10;99.90;;;;;;4988724;28;20515;-75
2021/09/08 06:07:19;;;;;;;9.68;8.68;;;13.20;99.90;;;;;;5000604;28;20042;-75
2021/09/08 06:09:45;;;;;;;12.15;8.57;;;13.30;99.90;;;;;;5008707;28;20496;-75
2021/09/08 06:12:10;;;;;;;10.88;7.70;;;13.40;99.90;;;;;;5010885;28;20042;-75
2021/09/08 06:14:36;;;;;;;;;;;13.40;99.90;;;;;;4964987;28;20129;-75
2021/09/08 06:17:02;;;;;;;12.77;7.78;;;13.50;99.90;;;;;;4993088;28;20028;-75
2021/09/08 06:19:28;;;;;;;18.23;8.93;;;13.60;99.90;;;;;;4977247;28;20108;-75
2021/09/08 06:21:53;;;;;;;12.23;10.55;;;13.70;99.90;;;;;;4972609;28;20041;-74
2021/09/08 06:24:19;;;;;;;12.20;8.50;;;13.70;99.90;;;;;;5001464;28;20040;-75
2021/09/08 06:26:45;;;;;;;;;;;13.90;99.90;;;;;;5010404;28;20107;-75
2021/09/08 06:29:10;;;;;;;13.45;9.43;;;14.10;99.90;;;;;;5044795;28;20047;-76
2021/09/08 06:31:36;;;;;;;13.40;9.20;;;14.20;99.90;;;;;;4991988;28;20054;-75
2021/09/08 06:34:02;;;;;;;;;;;14.40;99.90;;;;;;4993102;28;20039;-75
2021/09/08 06:36:27;;;;;;;14.05;8.68;;;14.60;99.90;;;;;;4995333;28;19921;-76
2021/09/08 06:38:53;;;;;;;;;;;14.70;99.90;;;;;;4995135;28;20468;-75
2021/09/08 06:41:19;;;;;;;12.77;7.88;;;14.90;99.90;;;;;;5011721;28;20059;-75
2021/09/08 06:43:48;;;;;;;11.73;7.22;;;15.00;99.90;;;;;;5007293;28;20062;-74
2021/09/08 06:46:15;;;;;;;15.48;9.45;;;15.10;99.90;;;;;;5006965;28;20044;-75
2021/09/08 06:48:41;;;;;;;8.35;6.03;;;15.40;99.90;;;;;;5010392;28;20037;-75
2021/09/08 06:51:06;;;;;;;15.25;8.95;;;15.50;99.90;;;;;;5012753;28;20436;-75
2021/09/08 06:53:32;;;;;;;;;;;15.60;99.90;;;;;;4994748;28;20037;-75
2021/09/08 06:55:58;;;;;;;13.40;7.93;;;15.80;99.90;;;;;;5007271;28;20387;-75
2021/09/08 06:58:23;;;;;;;;;;;15.90;99.90;;;;;;4979544;28;20128;-76
2021/09/08 07:00:49;;;;;;;15.38;7.50;;;16.00;99.90;;;;;;4994859;28;19921;-75
2021/09/08 07:03:15;;;;;;;9.90;8.00;;;16.10;99.90;;;;;;5010617;28;20622;-75
2021/09/08 07:05:40;;;;;;;11.63;8.73;;;16.20;99.90;;;;;;5012219;28;20045;-75
2021/09/08 07:08:09;;;;;;;;;;;16.30;99.90;;;;;;5010271;28;20057;-76
2021/09/08 07:10:35;;;;;;;15.15;8.85;;;16.40;99.90;;;;;;5013892;28;19924;-75
2021/09/08 07:13:01;;;;;;;12.63;8.57;;;16.60;99.90;;;;;;4995130;28;20037;-75
2021/09/08 07:15:26;;;;;;;;;;;16.70;99.90;;;;;;5013275;28;20045;-75
2021/09/08 07:17:52;;;;;;;14.30;7.65;;;16.80;99.90;;;;;;5042324;28;20348;-75
2021/09/08 07:20:17;;;;;;;;;;;16.90;99.90;;;;;;5011177;28;20052;-74
2021/09/08 07:22:43;;;;;;;11.93;6.93;;;17.00;99.90;;;;;;5049608;28;19917;-74
2021/09/08 07:25:09;;;;;;;;;;;17.00;99.90;;;;;;4994190;28;20052;-75
2021/09/08 07:27:35;;;;;;;11.32;6.85;;;17.10;99.90;;;;;;5011071;28;19921;-74
2021/09/08 07:30:00;;;;;;;;;;;17.20;99.90;;;;;;5011253;28;20125;-75
2021/09/08 07:32:26;;;;;;;12.40;6.60;;;17.40;99.90;;;;;;5009156;28;19917;-75
2021/09/08 07:34:57;;;;;;;;;;;17.50;99.90;;;;;;5010917;28;20550;-76
2021/09/08 07:37:23;;;;;;;11.93;6.00;;;17.60;99.90;;;;;;5017371;28;19944;-75
2021/09/08 07:39:49;;;;;;;;;;;17.80;99.90;;;;;;5011062;28;20125;-75
2021/09/08 07:42:15;;;;;;;10.57;6.05;;;17.90;99.90;;;;;;5001052;28;20344;-75
2021/09/08 07:44:43;;;;;;;9.00;5.90;;;18.00;99.90;;;;;;5011207;28;20049;-75
2021/09/08 07:47:09;;;;;;;13.43;6.95;;;18.10;99.90;;;;;;4999593;28;20136;-75
2021/09/08 07:49:34;;;;;;;12.68;6.55;;;18.20;99.90;;;;;;5010104;28;20050;-74
2021/09/08 07:52:00;;;;;;;;;;;18.30;99.90;;;;;;5012352;28;20038;-76
2021/09/08 07:54:26;;;;;;;8.60;6.18;;;18.40;99.90;;;;;;5008037;28;19921;-75
2021/09/08 07:56:53;;;;;;;13.98;7.63;;;18.60;99.90;;;;;;5011564;28;20042;-75
2021/09/08 07:59:19;;;;;;;8.50;4.70;;;18.60;99.90;;;;;;5010665;28;20045;-74
2021/09/08 08:01:44;;;;;;;;;;;18.70;99.90;;;;;;5012666;28;20030;-75
2021/09/08 08:04:10;;;;;;;6.97;5.38;;;18.80;99.90;;;;;;5009794;28;19925;-74
2021/09/08 08:06:37;;;;;;;;;;;18.90;99.90;;;;;;5007888;28;20133;-74
2021/09/08 08:09:06;;;;;;;9.48;5.45;;;19.00;99.90;;;;;;5005038;28;19996;-74
2021/09/08 08:11:32;;;;;;;14.77;5.35;;;19.10;99.90;;;;;;5003098;28;20038;-73
2021/09/08 08:13:58;;;;;;;6.60;4.35;;;19.20;99.90;;;;;;5008406;28;20510;-74
2021/09/08 08:16:24;;;;;;;10.90;5.93;;;19.30;99.90;;;;;;5010025;28;20046;-74
2021/09/08 08:18:49;;;;;;;;;;;19.30;99.90;;;;;;4993872;28;20049;-74
2021/09/08 08:21:15;;;;;;;7.68;4.80;;;19.40;99.90;;;;;;5031575;28;20299;-74
2021/09/08 08:23:41;;;;;;;;;;;19.50;99.90;;;;;;5009803;28;20077;-74
2021/09/08 08:26:06;;;;;;;10.70;4.93;;;19.60;99.90;;;;;;4983384;28;20399;-74
2021/09/08 08:28:32;;;;;;;;;;;19.60;99.90;;;;;;5004296;28;20443;-74
2021/09/08 08:30:59;;;;;;;5.68;3.58;;;19.70;99.90;;;;;;5002443;28;19925;-74
2021/09/08 08:33:26;;;;;;;8.75;5.32;;;19.80;99.90;;;;;;5011106;28;20049;-74
2021/09/08 08:35:52;;;;;;;6.20;3.97;;;19.90;99.90;;;;;;4995603;28;20074;-74
2021/09/08 08:38:18;;;;;;;10.23;5.18;;;20.00;99.90;;;;;;4981265;28;20326;-74
2021/09/08 08:40:43;;;;;;;;;;;20.10;99.90;;;;;;5009151;28;20038;-74
2021/09/08 08:43:10;;;;;;;11.38;5.45;;;20.20;99.90;;;;;;5041620;28;19924;-74
2021/09/08 08:45:36;;;;;;;13.20;5.07;;;20.20;99.90;;;;;;5011234;28;20049;-74
2021/09/08 08:48:02;;;;;;;10.57;4.38;;;20.50;99.90;;;;;;4992547;28;20054;-75
2021/09/08 08:50:28;;;;;;;6.28;4.85;;;20.50;99.90;;;;;;4994045;28;20127;-75
2021/09/08 08:52:55;;;;;;;10.88;6.18;;;20.60;99.90;;;;;;4986035;28;20053;-74
2021/09/08 08:55:21;;;;;;;6.43;4.05;;;20.60;99.90;;;;;;4993926;28;20058;-74
2021/09/08 08:57:50;;;;;;;7.80;5.15;;;20.70;99.90;;;;;;5009599;28;20049;-74
2021/09/08 09:00:17;;;;;;;8.65;4.97;;;20.70;99.90;;;;;;5009674;28;20115;-74
2021/09/08 09:02:52;;;;;;;6.50;4.35;;;20.80;99.90;;;;;;5009349;28;20387;-74
2021/09/08 09:05:47;;;;;;;8.52;5.07;;;21.00;99.90;;;;;;5009474;28;20042;-74
2021/09/08 09:08:15;;;;;;;6.82;4.82;;;20.90;99.90;;;;;;4977915;28;20042;-74
2021/09/08 09:10:41;;;;;;;7.50;5.18;;;21.00;99.90;;;;;;4996458;28;20526;-74
2021/09/08 09:13:08;;;;;;;8.70;5.13;;;21.10;99.90;;;;;;5000499;28;20535;-74
2021/09/08 09:15:35;;;;;;;7.15;5.07;;;21.20;99.90;;;;;;4995650;28;20141;-74
2021/09/08 09:18:00;;;;;;;7.20;3.72;;;21.30;99.90;;;;;;5007939;28;20042;-74
2021/09/08 09:20:32;;;;;;;5.35;4.32;;;;;;;;;;4999612;28;20050;-75
2021/09/08 09:22:59;;;;;;;8.13;4.95;;;;;;;;;;4976109;28;20038;-75
2021/09/08 09:25:35;;;;;;;6.75;4.35;;;21.60;99.90;;;;;;4983960;28;20334;-73
2021/09/08 09:28:06;;;;;;;6.13;4.65;;;21.50;99.90;;;;;;4989716;28;20054;-75
2021/09/08 09:30:34;;;;;;;8.52;4.70;;;21.60;99.90;;;;;;5005080;28;20038;-75
2021/09/08 09:33:01;;;;;;;8.50;5.10;;;21.70;99.90;;;;;;4991339;28;20055;-78
2021/09/08 09:35:29;;;;;;;6.03;3.88;;;21.80;99.90;;;;;;5011579;28;20053;-77
2021/09/08 09:37:57;;;;;;;8.45;4.22;;;21.80;99.90;;;;;;5013871;28;20061;-76
2021/09/08 09:40:26;;;;;;;7.55;4.22;;;21.90;99.90;;;;;;5011123;28;20133;-76
2021/09/08 09:42:52;;;;;;;5.55;3.65;;;22.10;99.90;;;;;;4996451;28;20093;-78
2021/09/08 09:45:19;;;;;;;7.20;4.00;;;22.10;99.90;;;;;;5000086;28;20407;-77
2021/09/08 09:47:46;;;;;;;3.70;2.95;;;22.10;99.90;;;;;;5011782;28;20487;-77
2021/09/08 09:50:17;;;;;;;6.43;3.35;;;22.10;99.90;;;;;;5012695;28;20049;-78
2021/09/08 09:52:47;;;;;;;4.85;3.50;;;22.30;99.90;;;;;;4993432;28;20046;-76
2021/09/08 09:55:14;;;;;;;5.38;3.30;;;22.30;99.90;;;;;;5009796;28;20042;-76
2021/09/08 09:57:41;;;;;;;9.75;3.75;;;22.40;99.90;;;;;;5010011;28;20507;-76
2021/09/08 10:00:08;;;;;;;4.53;3.03;;;22.50;99.90;;;;;;5013609;28;20050;-74
2021/09/08 10:02:34;;;;;;;7.97;3.88;;;22.60;99.90;;;;;;4996148;28;20517;-76
2021/09/08 10:05:00;;;;;;;5.25;3.40;;;22.70;99.90;;;;;;4995301;28;20038;-76
2021/09/08 10:07:26;;;;;;;6.00;2.95;;;22.80;99.90;;;;;;4979975;28;20056;-76
2021/09/08 10:09:57;;;;;;;6.57;3.78;;;22.80;99.90;;;;;;5008331;28;20534;-76
2021/09/08 10:12:30;;;;;;;5.45;3.00;;;22.90;99.90;;;;;;5010384;28;20049;-76
2021/09/08 10:14:56;;;;;;;6.32;3.10;;;22.80;99.90;;;;;;4997654;28;20049;-76
2021/09/08 10:17:24;;;;;;;7.50;3.53;;;22.90;99.90;;;;;;5001552;28;20057;-75
2021/09/08 10:20:04;;;;;;;3.78;2.17;;;22.90;99.90;;;;;;4995718;28;20042;-76
2021/09/08 10:22:30;;;;;;;5.13;3.58;;;23.00;99.90;;;;;;5012536;28;20041;-76
2021/09/08 10:25:06;;;;;;;4.95;3.10;;;23.00;99.90;;;;;;5013037;28;20088;-76
2021/09/08 10:27:32;;;;;;;6.30;3.00;;;23.10;99.90;;;;;;5011531;28;20129;-75
2021/09/08 10:29:58;;;;;;;7.05;3.15;;;23.30;99.90;;;;;;4976397;28;20129;-75
2021/09/08 10:32:25;;;;;;;4.50;2.85;;;23.30;99.90;;;;;;5008344;28;20041;-75
2021/09/08 10:34:51;;;;;;;2.63;2.10;;;23.40;99.90;;;;;;5012352;28;20042;-75
2021/09/08 10:37:17;;;;;;;7.85;2.80;;;23.40;99.90;;;;;;5013595;28;20081;-75
2021/09/08 10:39:44;;;;;;;5.32;3.25;;;23.60;99.90;;;;;;5012600;28;20041;-76
2021/09/08 10:42:10;;;;;;;5.43;3.20;;;23.70;99.90;;;;;;5011203;28;20034;-74
2021/09/08 10:44:54;;;;;;;5.75;3.55;;;;;;;;;;5011336;28;20092;-76
2021/09/08 10:47:38;;;;;;;3.45;2.58;;;23.70;99.90;;;;;;4984538;28;20034;-75
2021/09/08 10:50:08;;;;;;;4.20;2.78;;;23.90;99.90;;;;;;5023149;28;20045;-76
2021/09/08 10:52:36;;;;;;;3.78;2.17;;;24.00;99.90;;;;;;5013059;28;20423;-76
2021/09/08 10:55:02;;;;;;;4.00;2.10;;;24.00;99.90;;;;;;5010794;28;20042;-75
2021/09/08 10:57:40;;;;;;;3.33;2.58;;;24.10;99.90;;;;;;5012337;28;20054;-76
2021/09/08 11:00:08;;;;;;;4.47;2.50;;;24.20;99.90;;;;;;5011282;28;20559;-75
2021/09/08 11:02:41;;;;;;;4.00;2.65;;;24.20;99.90;;;;;;5010923;28;20050;-76
2021/09/08 11:05:09;;;;;;;3.30;2.35;;;24.40;99.90;;;;;;5010298;28;20053;-74
2021/09/08 11:07:42;;;;;;;5.90;3.00;;;24.30;99.90;;;;;;5011596;28;20091;-74
2021/09/08 11:10:11;;;;;;;3.97;2.58;;;24.40;99.90;;;;;;4976608;28;20052;-74
2021/09/08 11:12:52;;;;;;;3.35;2.00;;;24.50;99.90;;;;;;4995306;28;20054;-77
2021/09/08 11:15:19;;;;;;;4.47;2.83;;;;;;;;;;5011971;28;20092;-73
2021/09/08 11:17:53;;;;;;;2.75;1.77;;;24.70;99.90;;;;;;5011846;28;20412;-73
2021/09/08 11:20:19;;;;;;;3.83;2.45;;;24.80;99.90;;;;;;5009896;28;20042;-74
2021/09/08 11:23:06;;;;;;;4.18;2.90;;;24.90;99.90;;;;;;5021932;28;20042;-74
2021/09/08 11:25:37;;;;;;;2.72;2.00;;;25.00;99.90;;;;;;4997033;28;20042;-75
2021/09/08 11:28:05;;;;;;;5.68;2.65;;;25.00;99.90;;;;;;4990944;28;20455;-74
2021/09/08 11:30:33;;;;;;;4.80;2.95;;;25.10;99.90;;;;;;5011819;28;20060;-75
2021/09/08 11:33:08;;;;;;;5.90;2.55;;;25.10;99.90;;;;;;5005894;28;20081;-75
2021/09/08 11:35:49;;;;;;;4.10;2.58;;;25.10;99.90;;;;;;5002764;28;20046;-75
2021/09/08 11:38:19;;;;;;;3.85;2.58;;;25.20;99.90;;;;;;4983063;28;20034;-76
2021/09/08 11:40:56;;;;;;;12.18;2.58;;;25.30;99.90;;;;;;5012869;28;20042;-76
2021/09/08 11:43:37;;;;;;;5.55;2.60;;;25.30;99.90;;;;;;5008224;28;20038;-76
2021/09/08 11:46:21;;;;;;;4.18;2.20;;;25.20;99.90;;;;;;4999110;28;20479;-76
2021/09/08 11:48:55;;;;;;;4.40;2.17;;;25.20;99.90;;;;;;4974481;28;20042;-76
2021/09/08 11:51:25;;;;;;;3.42;2.67;;;25.30;99.90;;;;;;4991550;28;20117;-76
2021/09/08 11:53:55;;;;;;;3.67;2.38;;;25.30;99.90;;;;;;4993116;28;20050;-75
2021/09/08 11:56:23;;;;;;;3.55;2.40;;;25.40;99.90;;;;;;4994836;28;20060;-76
2021/09/08 11:58:57;;;;;;;5.18;2.63;;;25.50;99.90;;;;;;4990870;28;20062;-76
2021/09/08 12:01:23;;;;;;;6.82;2.75;;;25.50;99.90;;;;;;4975308;28;20046;-75
2021/09/08 12:04:00;;;;;;;4.35;2.75;;;25.60;99.90;;;;;;4990449;28;20508;-76
2021/09/08 12:06:58;;;;;;;2.67;1.95;;;25.70;99.90;;;;;;4990976;28;20125;-76
2021/09/08 12:09:26;;;;;;;3.45;2.60;;;25.80;99.90;;;;;;4990911;28;20435;-76
2021/09/08 12:12:03;;;;;;;4.82;3.20;;;25.90;99.90;;;;;;4990862;28;20050;-76
2021/09/08 12:14:32;;;;;;;4.60;2.88;;;26.00;99.90;;;;;;4990648;28;20065;-76
2021/09/08 12:17:00;;;;;;;4.85;2.58;;;26.10;99.90;;;;;;4977322;28;20167;-75
2021/09/08 12:19:41;;;;;;;3.47;2.50;;;26.10;99.90;;;;;;4990292;28;20073;-75
2021/09/08 12:22:23;;;;;;;6.38;2.58;;;26.10;99.90;;;;;;4982233;28;20435;-76
2021/09/08 12:24:56;;;;;;;3.67;2.55;;;26.00;99.90;;;;;;5001534;28;20042;-75
2021/09/08 12:27:34;;;;;;;2.42;1.75;;;26.00;99.90;;;;;;5001573;28;20050;-76
2021/09/08 12:30:08;;;;;;;3.35;1.98;;;26.10;99.90;;;;;;4975030;28;20129;-77
2021/09/08 12:32:54;;;;;;;2.97;1.95;;;26.10;99.90;;;;;;4981178;28;20073;-76
2021/09/08 12:35:42;;;;;;;3.35;1.92;;;26.20;96.50;;;;;;4990975;28;20046;-75
2021/09/08 12:38:24;;;;;;;6.80;2.75;;;26.10;99.80;;;;;;4992603;28;20053;-77
2021/09/08 12:41:12;;;;;;;3.90;2.22;;;26.30;99.90;;;;;;4990955;28;20054;-76
2021/09/08 12:43:40;;;;;;;5.35;2.67;;;26.40;99.90;;;;;;4998909;28;20052;-76
2021/09/08 12:46:06;;;;;;;4.20;2.72;;;26.50;99.90;;;;;;4993021;28;20046;-76
2021/09/08 12:48:32;;;;;;;3.20;2.00;;;26.60;98.80;;;;;;4991801;28;20081;-75
2021/09/08 12:50:58;;;;;;;3.20;1.75;;;26.60;99.90;;;;;;4993399;28;20053;-77
2021/09/08 12:53:23;;;;;;;4.65;2.20;;;26.70;99.90;;;;;;4990360;28;20042;-75
2021/09/08 12:55:49;;;;;;;4.65;2.55;;;26.80;99.90;;;;;;4992568;28;20048;-75
2021/09/08 12:58:15;;;;;;;3.13;2.15;;;27.00;99.90;;;;;;4992084;28;20037;-74